Terminal Aerodrome Forecast
Issued by NWS Oklahoma City, OK

Home | Current Version | Previous Version | Text Only | Print | Product List | Glossary On
Versions: 1 2 3 4 5 6 7 8 9 10 11 12 13 14 15 16 17 18 19 20 21 22 23 24 25 26 27 28 29 30 31 32
000
FTUS44 KOUN 170520
TAFOUN
TAF
KOUN 170520Z 1706/1806 29007KT P6SM BKN023
      TEMPO 1706/1710 SCT025
     FM171900 33006KT P6SM BKN040
     FM172300 VRB05KT P6SM OVC080=

USA.gov is the U.S. government's official web portal to all federal, state and local government web resources and services.